sensor_id;sensor_type;location;lat;lon;timestamp;temperature;humidity
20891;DHT22;10605;52.968;8.844;2024-01-16T00:00:54;0.90;99.90
20891;DHT22;10605;52.968;8.844;2024-01-16T00:03:19;0.90;99.90
20891;DHT22;10605;52.968;8.844;2024-01-16T00:05:45;0.90;99.90
20891;DHT22;10605;52.968;8.844;2024-01-16T00:08:11;0.90;99.90
20891;DHT22;10605;52.968;8.844;2024-01-16T00:10:36;0.90;99.90
20891;DHT22;10605;52.968;8.844;2024-01-16T00:13:02;0.90;99.90
20891;DHT22;10605;52.968;8.844;2024-01-16T00:15:28;0.90;99.90
20891;DHT22;10605;52.968;8.844;2024-01-16T00:17:53;0.90;99.90
20891;DHT22;10605;52.968;8.844;2024-01-16T00:20:19;0.90;99.90
20891;DHT22;10605;52.968;8.844;2024-01-16T00:22:45;0.90;99.90
20891;DHT22;10605;52.968;8.844;2024-01-16T00:25:10;0.90;99.90
20891;DHT22;10605;52.968;8.844;2024-01-16T00:27:37;1.00;99.90
20891;DHT22;10605;52.968;8.844;2024-01-16T00:30:03;1.00;99.90
20891;DHT22;10605;52.968;8.844;2024-01-16T00:32:29;1.10;99.90
20891;DHT22;10605;52.968;8.844;2024-01-16T00:34:54;1.10;99.90
20891;DHT22;10605;52.968;8.844;2024-01-16T00:37:20;1.10;99.90
20891;DHT22;10605;52.968;8.844;2024-01-16T00:39:46;1.00;99.90
20891;DHT22;10605;52.968;8.844;2024-01-16T00:42:11;1.00;99.90
20891;DHT22;10605;52.968;8.844;2024-01-16T00:44:37;1.00;99.90
20891;DHT22;10605;52.968;8.844;2024-01-16T00:47:03;1.00;99.90
20891;DHT22;10605;52.968;8.844;2024-01-16T00:49:31;1.00;99.90
20891;DHT22;10605;52.968;8.844;2024-01-16T00:51:56;1.00;99.90
20891;DHT22;10605;52.968;8.844;2024-01-16T00:54:22;1.00;99.90
20891;DHT22;10605;52.968;8.844;2024-01-16T00:56:48;1.00;99.90
20891;DHT22;10605;52.968;8.844;2024-01-16T00:59:13;1.00;99.90
20891;DHT22;10605;52.968;8.844;2024-01-16T01:01:45;1.00;99.90
20891;DHT22;10605;52.968;8.844;2024-01-16T01:04:11;1.00;99.90
20891;DHT22;10605;52.968;8.844;2024-01-16T01:06:36;1.00;99.90
20891;DHT22;10605;52.968;8.844;2024-01-16T01:09:02;0.90;99.90
20891;DHT22;10605;52.968;8.844;2024-01-16T01:11:28;0.90;99.90
20891;DHT22;10605;52.968;8.844;2024-01-16T01:13:54;0.90;99.90
20891;DHT22;10605;52.968;8.844;2024-01-16T01:16:19;0.80;99.90
20891;DHT22;10605;52.968;8.844;2024-01-16T01:18:45;0.80;99.90
20891;DHT22;10605;52.968;8.844;2024-01-16T01:21:10;0.90;99.90
20891;DHT22;10605;52.968;8.844;2024-01-16T01:23:36;0.80;99.90
20891;DHT22;10605;52.968;8.844;2024-01-16T01:26:02;0.80;99.90
20891;DHT22;10605;52.968;8.844;2024-01-16T01:28:29;0.70;99.90
20891;DHT22;10605;52.968;8.844;2024-01-16T01:30:54;0.70;99.90
20891;DHT22;10605;52.968;8.844;2024-01-16T01:33:20;0.70;99.90
20891;DHT22;10605;52.968;8.844;2024-01-16T01:35:45;0.60;99.90
20891;DHT22;10605;52.968;8.844;2024-01-16T01:38:11;0.60;99.90
20891;DHT22;10605;52.968;8.844;2024-01-16T01:40:37;0.60;99.90
20891;DHT22;10605;52.968;8.844;2024-01-16T01:43:25;0.50;99.90
20891;DHT22;10605;52.968;8.844;2024-01-16T01:46:10;0.50;99.90
20891;DHT22;10605;52.968;8.844;2024-01-16T01:48:40;0.40;99.90
20891;DHT22;10605;52.968;8.844;2024-01-16T01:51:07;0.40;99.90
20891;DHT22;10605;52.968;8.844;2024-01-16T01:53:33;0.30;99.90
20891;DHT22;10605;52.968;8.844;2024-01-16T01:56:03;0.40;99.90
20891;DHT22;10605;52.968;8.844;2024-01-16T01:58:32;0.40;99.90
20891;DHT22;10605;52.968;8.844;2024-01-16T02:00:59;0.30;99.90
20891;DHT22;10605;52.968;8.844;2024-01-16T02:03:27;0.40;99.90
20891;DHT22;10605;52.968;8.844;2024-01-16T02:05:55;0.30;99.90
20891;DHT22;10605;52.968;8.844;2024-01-16T02:08:22;0.30;99.90
20891;DHT22;10605;52.968;8.844;2024-01-16T02:10:49;0.20;99.90
20891;DHT22;10605;52.968;8.844;2024-01-16T02:13:15;0.20;99.90
20891;DHT22;10605;52.968;8.844;2024-01-16T02:15:45;0.30;99.90
20891;DHT22;10605;52.968;8.844;2024-01-16T02:18:11;0.30;99.90
20891;DHT22;10605;52.968;8.844;2024-01-16T02:20:36;0.20;99.90
20891;DHT22;10605;52.968;8.844;2024-01-16T02:23:04;0.20;99.90
20891;DHT22;10605;52.968;8.844;2024-01-16T02:25:31;0.20;99.90
20891;DHT22;10605;52.968;8.844;2024-01-16T02:27:56;0.20;99.90
20891;DHT22;10605;52.968;8.844;2024-01-16T02:30:22;0.20;99.90
20891;DHT22;10605;52.968;8.844;2024-01-16T02:32:48;0.20;99.90
20891;DHT22;10605;52.968;8.844;2024-01-16T02:35:14;0.30;99.90
20891;DHT22;10605;52.968;8.844;2024-01-16T02:37:40;0.40;99.90
20891;DHT22;10605;52.968;8.844;2024-01-16T02:40:06;0.40;99.90
20891;DHT22;10605;52.968;8.844;2024-01-16T02:42:35;0.40;99.90
20891;DHT22;10605;52.968;8.844;2024-01-16T02:45:02;0.50;99.90
20891;DHT22;10605;52.968;8.844;2024-01-16T02:47:29;0.50;99.90
20891;DHT22;10605;52.968;8.844;2024-01-16T02:49:54;0.50;99.90
20891;DHT22;10605;52.968;8.844;2024-01-16T02:52:20;0.50;99.90
20891;DHT22;10605;52.968;8.844;2024-01-16T02:54:46;0.50;99.90
20891;DHT22;10605;52.968;8.844;2024-01-16T02:57:12;0.60;99.90
20891;DHT22;10605;52.968;8.844;2024-01-16T02:59:37;0.50;99.90
20891;DHT22;10605;52.968;8.844;2024-01-16T03:02:03;0.50;99.90
20891;DHT22;10605;52.968;8.844;2024-01-16T03:04:29;0.60;99.90
20891;DHT22;10605;52.968;8.844;2024-01-16T03:06:55;0.50;99.90
20891;DHT22;10605;52.968;8.844;2024-01-16T03:09:20;0.50;99.90
20891;DHT22;10605;52.968;8.844;2024-01-16T03:11:46;0.50;99.90
20891;DHT22;10605;52.968;8.844;2024-01-16T03:14:12;0.40;99.90
20891;DHT22;10605;52.968;8.844;2024-01-16T03:16:39;0.40;99.90
20891;DHT22;10605;52.968;8.844;2024-01-16T03:19:05;0.40;99.90
20891;DHT22;10605;52.968;8.844;2024-01-16T03:21:30;0.40;99.90
20891;DHT22;10605;52.968;8.844;2024-01-16T03:23:56;0.30;99.90
20891;DHT22;10605;52.968;8.844;2024-01-16T03:26:22;0.30;99.90
20891;DHT22;10605;52.968;8.844;2024-01-16T03:28:47;0.20;99.90
20891;DHT22;10605;52.968;8.844;2024-01-16T03:31:13;0.10;99.90
20891;DHT22;10605;52.968;8.844;2024-01-16T03:33:39;0.10;99.90
20891;DHT22;10605;52.968;8.844;2024-01-16T03:36:10;0.10;99.90
20891;DHT22;10605;52.968;8.844;2024-01-16T03:38:36;0.00;99.90
20891;DHT22;10605;52.968;8.844;2024-01-16T03:41:03;0.00;99.90
20891;DHT22;10605;52.968;8.844;2024-01-16T03:43:35;0.00;99.90
20891;DHT22;10605;52.968;8.844;2024-01-16T03:46:01;0.00;99.90
20891;DHT22;10605;52.968;8.844;2024-01-16T03:48:27;-0.10;99.90
20891;DHT22;10605;52.968;8.844;2024-01-16T03:50:52;-0.20;99.90
20891;DHT22;10605;52.968;8.844;2024-01-16T03:53:20;-0.20;99.90
20891;DHT22;10605;52.968;8.844;2024-01-16T03:55:47;-0.20;99.90
20891;DHT22;10605;52.968;8.844;2024-01-16T03:58:13;-0.20;99.90
20891;DHT22;10605;52.968;8.844;2024-01-16T04:00:38;-0.30;99.90
20891;DHT22;10605;52.968;8.844;2024-01-16T04:03:04;-0.30;99.90
20891;DHT22;10605;52.968;8.844;2024-01-16T04:05:31;-0.30;99.90
20891;DHT22;10605;52.968;8.844;2024-01-16T04:07:59;-0.40;99.90
20891;DHT22;10605;52.968;8.844;2024-01-16T04:10:25;-0.50;99.90
20891;DHT22;10605;52.968;8.844;2024-01-16T04:12:50;-0.40;99.90
20891;DHT22;10605;52.968;8.844;2024-01-16T04:15:16;-0.40;99.90
20891;DHT22;10605;52.968;8.844;2024-01-16T04:17:42;-0.50;99.90
20891;DHT22;10605;52.968;8.844;2024-01-16T04:20:08;-0.40;99.90
20891;DHT22;10605;52.968;8.844;2024-01-16T04:22:34;-0.50;99.90
20891;DHT22;10605;52.968;8.844;2024-01-16T04:25:00;-0.50;99.90
20891;DHT22;10605;52.968;8.844;2024-01-16T04:27:26;-0.50;99.90
20891;DHT22;10605;52.968;8.844;2024-01-16T04:29:52;-0.50;99.90
20891;DHT22;10605;52.968;8.844;2024-01-16T04:32:18;-0.60;99.90
20891;DHT22;10605;52.968;8.844;2024-01-16T04:34:44;-0.60;99.90
20891;DHT22;10605;52.968;8.844;2024-01-16T04:37:10;-0.60;99.90
20891;DHT22;10605;52.968;8.844;2024-01-16T04:39:36;-0.60;99.90
20891;DHT22;10605;52.968;8.844;2024-01-16T04:42:01;-0.60;99.90
20891;DHT22;10605;52.968;8.844;2024-01-16T04:44:27;-0.60;99.90
20891;DHT22;10605;52.968;8.844;2024-01-16T04:46:53;-0.60;99.90
20891;DHT22;10605;52.968;8.844;2024-01-16T04:49:18;-0.60;99.90
20891;DHT22;10605;52.968;8.844;2024-01-16T04:51:44;-0.60;99.90
20891;DHT22;10605;52.968;8.844;2024-01-16T04:54:11;-0.60;99.90
20891;DHT22;10605;52.968;8.844;2024-01-16T04:56:37;-0.70;99.90
20891;DHT22;10605;52.968;8.844;2024-01-16T04:59:03;-0.60;99.90
20891;DHT22;10605;52.968;8.844;2024-01-16T05:01:28;-0.70;99.90
20891;DHT22;10605;52.968;8.844;2024-01-16T05:03:54;-0.70;99.90
20891;DHT22;10605;52.968;8.844;2024-01-16T05:06:20;-0.80;99.90
20891;DHT22;10605;52.968;8.844;2024-01-16T05:08:46;-0.80;99.90
20891;DHT22;10605;52.968;8.844;2024-01-16T05:11:11;-0.80;99.90
20891;DHT22;10605;52.968;8.844;2024-01-16T05:13:37;-0.80;99.90
20891;DHT22;10605;52.968;8.844;2024-01-16T05:16:03;-0.90;99.90
20891;DHT22;10605;52.968;8.844;2024-01-16T05:18:28;-0.90;99.90
20891;DHT22;10605;52.968;8.844;2024-01-16T05:20:54;-0.90;99.90
20891;DHT22;10605;52.968;8.844;2024-01-16T05:23:21;-0.80;99.90
20891;DHT22;10605;52.968;8.844;2024-01-16T05:25:50;-0.90;99.90
20891;DHT22;10605;52.968;8.844;2024-01-16T05:28:16;-0.90;99.90
20891;DHT22;10605;52.968;8.844;2024-01-16T05:30:41;-0.80;99.90
20891;DHT22;10605;52.968;8.844;2024-01-16T05:33:08;-0.80;99.90
20891;DHT22;10605;52.968;8.844;2024-01-16T05:35:33;-0.90;99.90
20891;DHT22;10605;52.968;8.844;2024-01-16T05:37:59;-0.80;99.90
20891;DHT22;10605;52.968;8.844;2024-01-16T05:40:25;-0.80;99.90
20891;DHT22;10605;52.968;8.844;2024-01-16T05:42:52;-0.80;99.90
20891;DHT22;10605;52.968;8.844;2024-01-16T05:45:18;-0.80;99.90
20891;DHT22;10605;52.968;8.844;2024-01-16T05:47:43;-0.80;99.90
20891;DHT22;10605;52.968;8.844;2024-01-16T05:50:10;-0.80;99.90
20891;DHT22;10605;52.968;8.844;2024-01-16T05:52:36;-0.70;99.90
20891;DHT22;10605;52.968;8.844;2024-01-16T05:55:03;-0.70;99.90
20891;DHT22;10605;52.968;8.844;2024-01-16T05:57:29;-0.70;99.90
20891;DHT22;10605;52.968;8.844;2024-01-16T05:59:59;-0.70;99.90
20891;DHT22;10605;52.968;8.844;2024-01-16T06:02:27;-0.70;99.90
20891;DHT22;10605;52.968;8.844;2024-01-16T06:04:53;-0.70;99.90
20891;DHT22;10605;52.968;8.844;2024-01-16T06:07:19;-0.70;99.90
20891;DHT22;10605;52.968;8.844;2024-01-16T06:09:44;-0.60;99.90
20891;DHT22;10605;52.968;8.844;2024-01-16T06:12:10;-0.60;99.90
20891;DHT22;10605;52.968;8.844;2024-01-16T06:14:37;-0.50;99.90
20891;DHT22;10605;52.968;8.844;2024-01-16T06:17:03;-0.50;99.90
20891;DHT22;10605;52.968;8.844;2024-01-16T06:19:31;-0.50;99.90
20891;DHT22;10605;52.968;8.844;2024-01-16T06:21:58;-0.50;99.90
20891;DHT22;10605;52.968;8.844;2024-01-16T06:24:23;-0.50;99.90
20891;DHT22;10605;52.968;8.844;2024-01-16T06:26:49;-0.40;99.90
20891;DHT22;10605;52.968;8.844;2024-01-16T06:29:15;-0.40;99.90
20891;DHT22;10605;52.968;8.844;2024-01-16T06:31:40;-0.40;99.90
20891;DHT22;10605;52.968;8.844;2024-01-16T06:34:06;-0.40;99.90
20891;DHT22;10605;52.968;8.844;2024-01-16T06:36:32;-0.30;99.90
20891;DHT22;10605;52.968;8.844;2024-01-16T06:38:58;-0.30;99.90
20891;DHT22;10605;52.968;8.844;2024-01-16T06:41:23;-0.30;99.90
20891;DHT22;10605;52.968;8.844;2024-01-16T06:43:49;-0.20;99.90
20891;DHT22;10605;52.968;8.844;2024-01-16T06:46:14;-0.10;99.90
20891;DHT22;10605;52.968;8.844;2024-01-16T06:48:41;-0.10;99.90
20891;DHT22;10605;52.968;8.844;2024-01-16T06:51:06;0.00;99.90
20891;DHT22;10605;52.968;8.844;2024-01-16T06:53:33;0.00;99.90
20891;DHT22;10605;52.968;8.844;2024-01-16T06:55:59;0.00;99.90
20891;DHT22;10605;52.968;8.844;2024-01-16T06:58:24;0.00;99.90
20891;DHT22;10605;52.968;8.844;2024-01-16T07:00:50;0.10;99.90
20891;DHT22;10605;52.968;8.844;2024-01-16T07:03:16;0.10;99.90
20891;DHT22;10605;52.968;8.844;2024-01-16T07:05:42;0.10;99.90
20891;DHT22;10605;52.968;8.844;2024-01-16T07:08:09;0.10;99.90
20891;DHT22;10605;52.968;8.844;2024-01-16T07:10:35;0.10;99.90
20891;DHT22;10605;52.968;8.844;2024-01-16T07:13:01;0.10;99.90
20891;DHT22;10605;52.968;8.844;2024-01-16T07:15:27;0.10;99.90
20891;DHT22;10605;52.968;8.844;2024-01-16T07:17:53;0.10;99.90
20891;DHT22;10605;52.968;8.844;2024-01-16T07:20:19;0.00;99.90
20891;DHT22;10605;52.968;8.844;2024-01-16T07:22:44;0.00;99.90
20891;DHT22;10605;52.968;8.844;2024-01-16T07:25:10;0.00;99.90
20891;DHT22;10605;52.968;8.844;2024-01-16T07:27:36;0.00;99.90
20891;DHT22;10605;52.968;8.844;2024-01-16T07:30:05;0.00;99.90
20891;DHT22;10605;52.968;8.844;2024-01-16T07:32:31;0.00;99.90
20891;DHT22;10605;52.968;8.844;2024-01-16T07:34:57;0.00;99.90
20891;DHT22;10605;52.968;8.844;2024-01-16T07:37:23;-0.10;99.90
20891;DHT22;10605;52.968;8.844;2024-01-16T07:39:48;0.00;99.90
20891;DHT22;10605;52.968;8.844;2024-01-16T07:42:14;0.00;99.90
20891;DHT22;10605;52.968;8.844;2024-01-16T07:44:40;0.00;99.90
20891;DHT22;10605;52.968;8.844;2024-01-16T07:47:06;0.00;99.90
20891;DHT22;10605;52.968;8.844;2024-01-16T07:49:31;0.00;99.90
20891;DHT22;10605;52.968;8.844;2024-01-16T07:51:57;0.00;99.90
20891;DHT22;10605;52.968;8.844;2024-01-16T07:54:22;0.00;99.90
20891;DHT22;10605;52.968;8.844;2024-01-16T07:56:49;0.00;99.90
20891;DHT22;10605;52.968;8.844;2024-01-16T07:59:15;0.10;99.90
20891;DHT22;10605;52.968;8.844;2024-01-16T08:01:40;0.10;99.90
20891;DHT22;10605;52.968;8.844;2024-01-16T08:04:06;0.10;99.90
20891;DHT22;10605;52.968;8.844;2024-01-16T08:06:32;0.10;99.90
20891;DHT22;10605;52.968;8.844;2024-01-16T08:08:57;0.10;99.90
20891;DHT22;10605;52.968;8.844;2024-01-16T08:11:23;0.20;99.90
20891;DHT22;10605;52.968;8.844;2024-01-16T08:13:49;0.20;99.90
20891;DHT22;10605;52.968;8.844;2024-01-16T08:16:14;0.20;99.90
20891;DHT22;10605;52.968;8.844;2024-01-16T08:18:40;0.20;99.90
20891;DHT22;10605;52.968;8.844;2024-01-16T08:21:06;0.20;99.90
20891;DHT22;10605;52.968;8.844;2024-01-16T08:23:33;0.20;99.90
20891;DHT22;10605;52.968;8.844;2024-01-16T08:25:59;0.20;99.90
20891;DHT22;10605;52.968;8.844;2024-01-16T08:28:27;0.30;99.90
20891;DHT22;10605;52.968;8.844;2024-01-16T08:30:53;0.20;99.90
20891;DHT22;10605;52.968;8.844;2024-01-16T08:33:18;0.30;99.90
20891;DHT22;10605;52.968;8.844;2024-01-16T08:35:44;0.30;99.90
20891;DHT22;10605;52.968;8.844;2024-01-16T08:38:10;0.30;99.90
20891;DHT22;10605;52.968;8.844;2024-01-16T08:40:36;0.30;99.90
20891;DHT22;10605;52.968;8.844;2024-01-16T08:43:01;0.30;99.90
20891;DHT22;10605;52.968;8.844;2024-01-16T08:45:29;0.30;99.90
20891;DHT22;10605;52.968;8.844;2024-01-16T08:47:55;0.40;99.90
20891;DHT22;10605;52.968;8.844;2024-01-16T08:50:20;0.40;99.90
20891;DHT22;10605;52.968;8.844;2024-01-16T08:52:46;0.40;99.90
20891;DHT22;10605;52.968;8.844;2024-01-16T08:55:12;0.40;99.90
20891;DHT22;10605;52.968;8.844;2024-01-16T08:57:38;0.50;99.90
20891;DHT22;10605;52.968;8.844;2024-01-16T09:00:05;0.50;99.90
20891;DHT22;10605;52.968;8.844;2024-01-16T09:02:31;0.60;99.90
20891;DHT22;10605;52.968;8.844;2024-01-16T09:04:57;0.60;99.90
20891;DHT22;10605;52.968;8.844;2024-01-16T09:07:24;0.60;99.90
20891;DHT22;10605;52.968;8.844;2024-01-16T09:09:50;0.70;99.90
20891;DHT22;10605;52.968;8.844;2024-01-16T09:12:16;0.70;99.90
20891;DHT22;10605;52.968;8.844;2024-01-16T09:14:42;0.80;99.90
20891;DHT22;10605;52.968;8.844;2024-01-16T09:17:07;0.80;99.90
20891;DHT22;10605;52.968;8.844;2024-01-16T09:19:33;0.90;99.90
20891;DHT22;10605;52.968;8.844;2024-01-16T09:21:59;0.90;99.90
20891;DHT22;10605;52.968;8.844;2024-01-16T09:24:25;0.90;99.90
20891;DHT22;10605;52.968;8.844;2024-01-16T09:26:50;1.00;99.90
20891;DHT22;10605;52.968;8.844;2024-01-16T09:29:17;1.00;99.90
20891;DHT22;10605;52.968;8.844;2024-01-16T09:31:48;1.10;99.90
20891;DHT22;10605;52.968;8.844;2024-01-16T09:34:14;1.00;99.90
20891;DHT22;10605;52.968;8.844;2024-01-16T09:36:40;0.90;99.90
20891;DHT22;10605;52.968;8.844;2024-01-16T09:39:07;0.90;99.90
20891;DHT22;10605;52.968;8.844;2024-01-16T09:41:42;0.90;99.90
20891;DHT22;10605;52.968;8.844;2024-01-16T09:44:08;0.90;99.90
20891;DHT22;10605;52.968;8.844;2024-01-16T09:46:35;1.00;99.90
20891;DHT22;10605;52.968;8.844;2024-01-16T09:49:02;1.00;99.90
20891;DHT22;10605;52.968;8.844;2024-01-16T09:51:29;1.00;99.90
20891;DHT22;10605;52.968;8.844;2024-01-16T09:53:55;1.00;99.90
20891;DHT22;10605;52.968;8.844;2024-01-16T09:56:24;1.10;99.90
20891;DHT22;10605;52.968;8.844;2024-01-16T09:58:52;1.00;99.90
20891;DHT22;10605;52.968;8.844;2024-01-16T10:01:20;1.10;99.90
20891;DHT22;10605;52.968;8.844;2024-01-16T10:03:47;1.10;99.90
20891;DHT22;10605;52.968;8.844;2024-01-16T10:06:13;1.20;99.90
20891;DHT22;10605;52.968;8.844;2024-01-16T10:08:41;1.20;99.90
20891;DHT22;10605;52.968;8.844;2024-01-16T10:11:06;1.30;99.90
20891;DHT22;10605;52.968;8.844;2024-01-16T10:13:34;1.40;99.90
20891;DHT22;10605;52.968;8.844;2024-01-16T10:16:00;1.40;99.90
20891;DHT22;10605;52.968;8.844;2024-01-16T10:18:28;1.50;99.90
20891;DHT22;10605;52.968;8.844;2024-01-16T10:20:55;1.50;99.90
20891;DHT22;10605;52.968;8.844;2024-01-16T10:23:25;1.60;99.90
20891;DHT22;10605;52.968;8.844;2024-01-16T10:28:34;1.70;99.90
20891;DHT22;10605;52.968;8.844;2024-01-16T10:31:14;1.60;99.90
20891;DHT22;10605;52.968;8.844;2024-01-16T10:33:39;1.60;99.90
20891;DHT22;10605;52.968;8.844;2024-01-16T10:36:13;1.70;99.90
20891;DHT22;10605;52.968;8.844;2024-01-16T10:38:41;1.70;99.90
20891;DHT22;10605;52.968;8.844;2024-01-16T10:41:11;1.70;99.90
20891;DHT22;10605;52.968;8.844;2024-01-16T10:43:40;1.70;99.90
20891;DHT22;10605;52.968;8.844;2024-01-16T10:46:14;1.80;99.90
20891;DHT22;10605;52.968;8.844;2024-01-16T10:49:00;1.70;99.90
20891;DHT22;10605;52.968;8.844;2024-01-16T10:51:31;1.80;99.90
20891;DHT22;10605;52.968;8.844;2024-01-16T10:54:04;1.70;99.90
20891;DHT22;10605;52.968;8.844;2024-01-16T10:56:34;1.70;99.90
20891;DHT22;10605;52.968;8.844;2024-01-16T11:01:35;1.60;99.90
20891;DHT22;10605;52.968;8.844;2024-01-16T11:04:01;1.70;99.90
20891;DHT22;10605;52.968;8.844;2024-01-16T11:06:30;1.70;99.90
20891;DHT22;10605;52.968;8.844;2024-01-16T11:08:57;1.70;99.90
20891;DHT22;10605;52.968;8.844;2024-01-16T11:11:26;1.70;99.90
20891;DHT22;10605;52.968;8.844;2024-01-16T11:13:53;1.80;99.90
20891;DHT22;10605;52.968;8.844;2024-01-16T11:16:20;1.80;99.90
20891;DHT22;10605;52.968;8.844;2024-01-16T11:18:46;1.80;99.90
20891;DHT22;10605;52.968;8.844;2024-01-16T11:21:14;1.70;99.90
20891;DHT22;10605;52.968;8.844;2024-01-16T11:23:40;1.70;99.90
20891;DHT22;10605;52.968;8.844;2024-01-16T11:26:31;1.70;99.90
20891;DHT22;10605;52.968;8.844;2024-01-16T11:31:54;1.70;99.90
20891;DHT22;10605;52.968;8.844;2024-01-16T11:37:27;1.70;99.90
20891;DHT22;10605;52.968;8.844;2024-01-16T11:42:52;1.70;99.90
20891;DHT22;10605;52.968;8.844;2024-01-16T11:48:15;1.70;99.90
20891;DHT22;10605;52.968;8.844;2024-01-16T11:50:42;1.70;99.90
20891;DHT22;10605;52.968;8.844;2024-01-16T11:53:08;1.70;99.90
20891;DHT22;10605;52.968;8.844;2024-01-16T11:55:41;1.70;99.90
20891;DHT22;10605;52.968;8.844;2024-01-16T12:00:49;1.70;99.90
20891;DHT22;10605;52.968;8.844;2024-01-16T12:03:20;1.70;99.90
20891;DHT22;10605;52.968;8.844;2024-01-16T12:06:21;1.80;99.90
20891;DHT22;10605;52.968;8.844;2024-01-16T12:08:47;1.80;99.90
20891;DHT22;10605;52.968;8.844;2024-01-16T12:11:18;1.80;99.90
20891;DHT22;10605;52.968;8.844;2024-01-16T12:13:44;1.70;99.90
20891;DHT22;10605;52.968;8.844;2024-01-16T12:16:10;1.70;99.90
20891;DHT22;10605;52.968;8.844;2024-01-16T12:18:35;1.70;99.90
20891;DHT22;10605;52.968;8.844;2024-01-16T12:21:11;1.70;99.90
20891;DHT22;10605;52.968;8.844;2024-01-16T12:23:36;1.70;99.90
20891;DHT22;10605;52.968;8.844;2024-01-16T12:26:02;1.70;99.90
20891;DHT22;10605;52.968;8.844;2024-01-16T12:28:29;1.70;99.90
20891;DHT22;10605;52.968;8.844;2024-01-16T12:30:54;1.70;99.90
20891;DHT22;10605;52.968;8.844;2024-01-16T12:33:23;1.70;99.90
20891;DHT22;10605;52.968;8.844;2024-01-16T12:35:49;1.70;99.90
20891;DHT22;10605;52.968;8.844;2024-01-16T12:38:15;1.60;99.90
20891;DHT22;10605;52.968;8.844;2024-01-16T12:40:45;1.70;99.90
20891;DHT22;10605;52.968;8.844;2024-01-16T12:43:13;1.70;99.90
20891;DHT22;10605;52.968;8.844;2024-01-16T12:45:39;1.70;99.90
20891;DHT22;10605;52.968;8.844;2024-01-16T12:48:06;2.00;99.90
20891;DHT22;10605;52.968;8.844;2024-01-16T12:50:33;2.20;99.90
20891;DHT22;10605;52.968;8.844;2024-01-16T12:53:10;2.40;99.90
20891;DHT22;10605;52.968;8.844;2024-01-16T12:55:40;2.20;99.90
20891;DHT22;10605;52.968;8.844;2024-01-16T12:58:21;2.30;99.90
20891;DHT22;10605;52.968;8.844;2024-01-16T13:00:52;2.30;99.90
20891;DHT22;10605;52.968;8.844;2024-01-16T13:03:24;2.10;99.90
20891;DHT22;10605;52.968;8.844;2024-01-16T13:05:56;2.10;99.90
20891;DHT22;10605;52.968;8.844;2024-01-16T13:08:22;2.00;99.90
20891;DHT22;10605;52.968;8.844;2024-01-16T13:11:07;2.00;99.90
20891;DHT22;10605;52.968;8.844;2024-01-16T13:13:33;2.00;99.90
20891;DHT22;10605;52.968;8.844;2024-01-16T13:16:00;2.00;99.90
20891;DHT22;10605;52.968;8.844;2024-01-16T13:18:27;1.90;99.90
20891;DHT22;10605;52.968;8.844;2024-01-16T13:20:54;2.00;99.90
20891;DHT22;10605;52.968;8.844;2024-01-16T13:23:21;2.00;99.90
20891;DHT22;10605;52.968;8.844;2024-01-16T13:25:48;2.00;99.90
20891;DHT22;10605;52.968;8.844;2024-01-16T13:28:18;2.00;99.90
20891;DHT22;10605;52.968;8.844;2024-01-16T13:30:44;2.00;99.90
20891;DHT22;10605;52.968;8.844;2024-01-16T13:33:10;2.00;99.90
20891;DHT22;10605;52.968;8.844;2024-01-16T13:35:41;2.00;99.90
20891;DHT22;10605;52.968;8.844;2024-01-16T13:38:08;2.00;99.90
20891;DHT22;10605;52.968;8.844;2024-01-16T13:40:36;2.10;99.90
20891;DHT22;10605;52.968;8.844;2024-01-16T13:43:05;2.10;99.90
20891;DHT22;10605;52.968;8.844;2024-01-16T13:45:34;2.00;99.90
20891;DHT22;10605;52.968;8.844;2024-01-16T13:48:02;2.00;99.90
20891;DHT22;10605;52.968;8.844;2024-01-16T13:50:28;2.00;99.90
20891;DHT22;10605;52.968;8.844;2024-01-16T13:52:54;2.00;99.90
20891;DHT22;10605;52.968;8.844;2024-01-16T13:55:20;1.90;99.90
20891;DHT22;10605;52.968;8.844;2024-01-16T13:57:46;1.90;99.90
20891;DHT22;10605;52.968;8.844;2024-01-16T14:00:13;1.90;99.90
20891;DHT22;10605;52.968;8.844;2024-01-16T14:02:44;1.90;99.90
20891;DHT22;10605;52.968;8.844;2024-01-16T14:05:11;1.90;99.90
20891;DHT22;10605;52.968;8.844;2024-01-16T14:07:37;2.00;99.90
20891;DHT22;10605;52.968;8.844;2024-01-16T14:10:05;2.00;99.90
20891;DHT22;10605;52.968;8.844;2024-01-16T14:12:32;2.00;99.90
20891;DHT22;10605;52.968;8.844;2024-01-16T14:14:57;2.00;99.90
20891;DHT22;10605;52.968;8.844;2024-01-16T14:17:23;1.90;99.90
20891;DHT22;10605;52.968;8.844;2024-01-16T14:19:48;1.90;99.90
20891;DHT22;10605;52.968;8.844;2024-01-16T14:22:14;1.90;99.90
20891;DHT22;10605;52.968;8.844;2024-01-16T14:24:40;1.90;99.90
20891;DHT22;10605;52.968;8.844;2024-01-16T14:27:06;1.90;99.90
20891;DHT22;10605;52.968;8.844;2024-01-16T14:29:32;1.90;99.90
20891;DHT22;10605;52.968;8.844;2024-01-16T14:31:59;1.80;99.90
20891;DHT22;10605;52.968;8.844;2024-01-16T14:34:26;1.80;99.90
20891;DHT22;10605;52.968;8.844;2024-01-16T14:36:53;1.80;99.90
20891;DHT22;10605;52.968;8.844;2024-01-16T14:39:20;1.80;99.90
20891;DHT22;10605;52.968;8.844;2024-01-16T14:41:50;1.80;99.90
20891;DHT22;10605;52.968;8.844;2024-01-16T14:44:17;1.80;99.90
20891;DHT22;10605;52.968;8.844;2024-01-16T14:46:44;1.80;99.90
20891;DHT22;10605;52.968;8.844;2024-01-16T14:49:10;1.80;99.90
20891;DHT22;10605;52.968;8.844;2024-01-16T14:51:35;1.80;99.90
20891;DHT22;10605;52.968;8.844;2024-01-16T14:54:03;1.80;99.90
20891;DHT22;10605;52.968;8.844;2024-01-16T14:56:30;1.80;99.90
20891;DHT22;10605;52.968;8.844;2024-01-16T14:58:57;1.70;99.90
20891;DHT22;10605;52.968;8.844;2024-01-16T15:01:23;1.70;99.90
20891;DHT22;10605;52.968;8.844;2024-01-16T15:03:48;1.60;99.90
20891;DHT22;10605;52.968;8.844;2024-01-16T15:06:14;1.60;99.90
20891;DHT22;10605;52.968;8.844;2024-01-16T15:08:41;1.50;99.90
20891;DHT22;10605;52.968;8.844;2024-01-16T15:11:06;1.50;99.90
20891;DHT22;10605;52.968;8.844;2024-01-16T15:13:33;1.50;99.90
20891;DHT22;10605;52.968;8.844;2024-01-16T15:16:02;1.40;99.90
20891;DHT22;10605;52.968;8.844;2024-01-16T15:18:27;1.40;99.90
20891;DHT22;10605;52.968;8.844;2024-01-16T15:20:54;1.50;99.90
20891;DHT22;10605;52.968;8.844;2024-01-16T15:23:20;1.40;99.90
20891;DHT22;10605;52.968;8.844;2024-01-16T15:25:46;1.40;99.90
20891;DHT22;10605;52.968;8.844;2024-01-16T15:28:12;1.40;99.90
20891;DHT22;10605;52.968;8.844;2024-01-16T15:30:38;1.40;99.90
20891;DHT22;10605;52.968;8.844;2024-01-16T15:33:04;1.40;99.90
20891;DHT22;10605;52.968;8.844;2024-01-16T15:35:31;1.30;99.90
20891;DHT22;10605;52.968;8.844;2024-01-16T15:37:57;1.40;99.90
20891;DHT22;10605;52.968;8.844;2024-01-16T15:40:23;1.40;99.90
20891;DHT22;10605;52.968;8.844;2024-01-16T15:42:49;1.30;99.90
20891;DHT22;10605;52.968;8.844;2024-01-16T15:45:16;1.30;99.90
20891;DHT22;10605;52.968;8.844;2024-01-16T15:47:42;1.30;99.90
20891;DHT22;10605;52.968;8.844;2024-01-16T15:50:08;1.30;99.90
20891;DHT22;10605;52.968;8.844;2024-01-16T15:52:34;1.20;99.90
20891;DHT22;10605;52.968;8.844;2024-01-16T15:55:00;1.20;99.90
20891;DHT22;10605;52.968;8.844;2024-01-16T15:57:26;1.20;99.90
20891;DHT22;10605;52.968;8.844;2024-01-16T15:59:52;1.20;99.90